createdAt,value
2016-09-09T00:00:39.010Z,0.00
2016-09-09T00:01:39.526Z,0.00
2016-09-09T00:02:40.038Z,0.00
2016-09-09T00:03:40.552Z,0.00
2016-09-09T00:04:41.069Z,0.00
2016-09-09T00:05:41.582Z,0.00
2016-09-09T00:06:42.254Z,0.00
2016-09-09T00:07:42.761Z,0.00
2016-09-09T00:08:43.126Z,0.00
2016-09-09T00:09:43.653Z,0.00
2016-09-09T00:10:44.157Z,0.00
2016-09-09T00:11:44.825Z,0.00
2016-09-09T00:12:45.196Z,0.00
2016-09-09T00:13:45.719Z,0.00
2016-09-09T00:14:46.231Z,0.00
2016-09-09T00:15:46.750Z,0.00
2016-09-09T00:16:47.274Z,0.00
2016-09-09T00:17:47.779Z,0.00
2016-09-09T00:18:48.292Z,0.00
2016-09-09T00:19:48.809Z,0.00
2016-09-09T00:20:49.351Z,0.00
2016-09-09T00:21:49.834Z,0.00
2016-09-09T00:22:50.350Z,0.00
2016-09-09T00:23:50.865Z,0.00
2016-09-09T00:24:51.385Z,0.00
2016-09-09T00:25:51.898Z,0.00
2016-09-09T00:26:52.411Z,0.00
2016-09-09T00:27:52.925Z,0.00
2016-09-09T00:28:53.442Z,0.00
2016-09-09T00:29:53.951Z,0.00
2016-09-09T00:30:54.465Z,0.00
2016-09-09T00:31:54.983Z,0.00
2016-09-09T00:32:55.496Z,0.00
2016-09-09T00:33:56.017Z,0.00
2016-09-09T00:34:56.525Z,0.00
2016-09-09T00:35:57.037Z,0.00
2016-09-09T00:36:57.550Z,0.00
2016-09-09T00:37:58.063Z,0.00
2016-09-09T00:38:58.733Z,0.00
2016-09-09T00:39:59.250Z,0.00
2016-09-09T00:40:59.612Z,0.00
2016-09-09T00:42:00.122Z,0.00
2016-09-09T00:43:00.639Z,0.00
2016-09-09T00:44:01.151Z,0.00
2016-09-09T00:45:01.835Z,0.00
2016-09-09T00:46:02.187Z,0.00
2016-09-09T00:47:02.700Z,0.00
2016-09-09T00:48:03.218Z,0.00
2016-09-09T00:49:03.887Z,0.00
2016-09-09T00:50:04.272Z,0.00
2016-09-09T00:51:04.766Z,0.00
2016-09-09T00:52:05.281Z,0.00
2016-09-09T00:53:05.796Z,0.00
2016-09-09T00:54:06.309Z,0.00
2016-09-09T00:55:06.824Z,0.00
2016-09-09T00:56:07.345Z,0.00
2016-09-09T00:57:07.854Z,0.00
2016-09-09T00:58:08.365Z,0.00
2016-09-09T00:59:08.879Z,0.00
2016-09-09T01:00:09.390Z,0.00
2016-09-09T01:01:09.904Z,0.00
2016-09-09T01:02:10.418Z,0.00
2016-09-09T01:03:12.732Z,0.00
2016-09-09T01:04:11.447Z,0.00
2016-09-09T01:05:11.959Z,0.00
2016-09-09T01:06:12.623Z,0.00
2016-09-09T01:07:12.989Z,0.00
2016-09-09T01:08:13.508Z,0.00
2016-09-09T01:09:14.016Z,0.00
2016-09-09T01:10:14.538Z,0.00
2016-09-09T01:11:15.049Z,0.00
2016-09-09T01:12:15.565Z,0.00
2016-09-09T01:13:16.224Z,0.00
2016-09-09T01:14:16.593Z,0.00
2016-09-09T01:15:17.116Z,0.00
2016-09-09T01:16:17.622Z,0.00
2016-09-09T01:17:18.139Z,0.00
2016-09-09T01:18:18.649Z,0.00
2016-09-09T01:19:19.318Z,0.00
2016-09-09T01:20:19.679Z,0.00
2016-09-09T01:21:20.188Z,0.00
2016-09-09T01:22:20.855Z,0.00
2016-09-09T01:23:21.223Z,0.00
2016-09-09T01:24:21.738Z,0.00
2016-09-09T01:25:22.256Z,0.00
2016-09-09T01:26:22.796Z,0.00
2016-09-09T01:27:23.291Z,0.00
2016-09-09T01:28:23.810Z,0.00
2016-09-09T01:29:24.325Z,0.00
2016-09-09T01:30:24.839Z,0.00
2016-09-09T01:31:25.354Z,0.00
2016-09-09T01:32:26.021Z,0.00
2016-09-09T01:33:28.184Z,0.00
2016-09-09T01:34:26.898Z,0.00
2016-09-09T01:35:27.409Z,0.00
2016-09-09T01:36:27.929Z,0.00
2016-09-09T01:37:28.440Z,0.00
2016-09-09T01:38:28.955Z,0.00
2016-09-09T01:39:29.654Z,0.00
2016-09-09T01:40:30.142Z,0.00
2016-09-09T01:41:30.500Z,0.00
2016-09-09T01:42:31.017Z,0.00
2016-09-09T01:43:31.555Z,0.00
2016-09-09T01:44:32.078Z,0.00
2016-09-09T01:45:32.711Z,0.00
2016-09-09T01:46:33.080Z,0.00
2016-09-09T01:47:33.592Z,0.00
2016-09-09T01:48:34.255Z,0.00
2016-09-09T01:49:34.622Z,0.00
2016-09-09T01:50:35.136Z,0.00
2016-09-09T01:51:35.656Z,0.00
2016-09-09T01:52:37.964Z,0.00
2016-09-09T01:53:36.695Z,0.00
2016-09-09T01:54:37.193Z,0.00
2016-09-09T01:55:37.701Z,0.00
2016-09-09T01:56:38.364Z,0.00
2016-09-09T01:57:38.741Z,0.00
2016-09-09T01:58:40.293Z,0.00
2016-09-09T01:59:39.758Z,0.00
2016-09-09T02:00:40.271Z,0.00
2016-09-09T02:01:40.944Z,0.00
2016-09-09T02:02:41.457Z,0.00
2016-09-09T02:03:41.834Z,0.00
2016-09-09T02:04:42.338Z,0.00
2016-09-09T02:05:42.853Z,0.00
2016-09-09T02:06:43.369Z,0.00
2016-09-09T02:07:43.886Z,0.00
2016-09-09T02:08:44.402Z,0.00
2016-09-09T02:09:45.068Z,0.00
2016-09-09T02:10:45.431Z,0.00
2016-09-09T02:11:45.946Z,0.00
2016-09-09T02:12:46.457Z,0.00
2016-09-09T02:13:46.984Z,0.00
2016-09-09T02:14:47.474Z,0.00
2016-09-09T02:15:48.005Z,0.00
2016-09-09T02:16:48.514Z,0.00
2016-09-09T02:17:49.021Z,0.00
2016-09-09T02:18:49.536Z,0.00
2016-09-09T02:19:50.194Z,0.00
2016-09-09T02:20:50.574Z,0.00
2016-09-09T02:21:51.231Z,0.00
2016-09-09T02:22:51.593Z,0.00
2016-09-09T02:23:52.251Z,0.00
2016-09-09T02:24:52.641Z,0.00
2016-09-09T02:25:53.134Z,0.00
2016-09-09T02:26:53.651Z,0.00
2016-09-09T02:27:54.165Z,0.00
2016-09-09T02:28:54.682Z,0.00
2016-09-09T02:29:55.201Z,0.00
2016-09-09T02:30:55.708Z,0.00
2016-09-09T02:31:56.520Z,0.00
2016-09-09T02:32:56.736Z,0.00
2016-09-09T02:33:57.248Z,0.00
2016-09-09T02:34:57.765Z,0.00
2016-09-09T02:35:58.278Z,0.00
2016-09-09T02:36:58.795Z,0.00
2016-09-09T02:37:59.341Z,0.00
2016-09-09T02:38:59.845Z,0.00
2016-09-09T02:40:00.350Z,0.00
2016-09-09T02:41:01.018Z,0.00
2016-09-09T02:42:02.882Z,0.00
2016-09-09T02:43:01.898Z,0.00
2016-09-09T02:44:02.413Z,0.00
2016-09-09T02:45:02.928Z,0.00
2016-09-09T02:46:03.443Z,0.00
2016-09-09T02:47:04.107Z,0.00
2016-09-09T02:48:04.471Z,0.00
2016-09-09T02:49:04.985Z,0.00
2016-09-09T02:50:05.502Z,0.00
2016-09-09T02:51:06.015Z,0.00
2016-09-09T02:52:06.682Z,0.00
2016-09-09T02:53:07.046Z,0.00
2016-09-09T02:54:07.558Z,0.00
2016-09-09T02:55:08.074Z,0.00
2016-09-09T02:56:08.589Z,0.00
2016-09-09T02:57:09.112Z,0.00
2016-09-09T02:58:09.617Z,0.00
2016-09-09T02:59:10.135Z,0.00
2016-09-09T03:00:10.645Z,0.00
2016-09-09T03:01:11.160Z,0.00
2016-09-09T03:02:11.687Z,0.00
2016-09-09T03:03:12.341Z,0.00
2016-09-09T03:04:12.704Z,0.00
2016-09-09T03:05:13.371Z,0.00
2016-09-09T03:06:13.735Z,0.00
2016-09-09T03:07:14.253Z,0.00
2016-09-09T03:08:14.769Z,0.00
2016-09-09T03:09:15.285Z,0.00
2016-09-09T03:10:15.805Z,0.00
2016-09-09T03:11:16.325Z,0.00
2016-09-09T03:12:16.834Z,0.00
2016-09-09T03:13:17.343Z,0.00
2016-09-09T03:14:17.869Z,0.00
2016-09-09T03:15:18.385Z,0.00
2016-09-09T03:16:18.903Z,0.00
2016-09-09T03:17:19.415Z,0.00
2016-09-09T03:18:19.934Z,0.00
2016-09-09T03:19:20.444Z,0.00
2016-09-09T03:20:20.963Z,0.00
2016-09-09T03:21:21.476Z,0.00
2016-09-09T03:22:22.149Z,0.00
2016-09-09T03:23:22.508Z,0.00
2016-09-09T03:24:23.024Z,0.00
2016-09-09T03:25:23.535Z,0.00
2016-09-09T03:26:24.064Z,0.00
2016-09-09T03:27:24.564Z,0.00
2016-09-09T03:28:25.079Z,0.00
2016-09-09T03:29:25.588Z,0.00
2016-09-09T03:30:26.103Z,0.00
2016-09-09T03:31:26.619Z,0.00
2016-09-09T03:32:27.131Z,0.00
2016-09-09T03:33:27.794Z,0.00
2016-09-09T03:34:28.159Z,0.00
2016-09-09T03:35:28.675Z,0.00
2016-09-09T03:36:29.215Z,0.00
2016-09-09T03:37:29.870Z,0.00
2016-09-09T03:38:30.211Z,0.00
2016-09-09T03:39:30.722Z,0.00
2016-09-09T03:40:31.253Z,0.00
2016-09-09T03:41:31.905Z,0.00
2016-09-09T03:42:32.566Z,0.00
2016-09-09T03:43:32.781Z,0.00
2016-09-09T03:44:33.291Z,0.00
2016-09-09T03:45:33.850Z,0.00
2016-09-09T03:46:34.344Z,0.00
2016-09-09T03:47:34.839Z,0.00
2016-09-09T03:48:35.359Z,0.00
2016-09-09T03:49:35.866Z,0.00
2016-09-09T03:50:36.379Z,0.00
2016-09-09T03:51:36.900Z,0.00
2016-09-09T03:52:37.421Z,0.00
2016-09-09T03:53:38.083Z,0.00
2016-09-09T03:54:38.455Z,0.00
2016-09-09T03:55:39.111Z,0.00
2016-09-09T03:56:39.476Z,0.00
2016-09-09T03:57:39.987Z,0.00
2016-09-09T03:58:40.503Z,0.00
2016-09-09T03:59:41.170Z,0.00
2016-09-09T04:00:41.540Z,0.00
2016-09-09T04:01:42.047Z,0.00
2016-09-09T04:02:42.710Z,0.00
2016-09-09T04:03:43.070Z,0.00
2016-09-09T04:04:43.614Z,0.00
2016-09-09T04:05:44.106Z,0.00
2016-09-09T04:06:44.619Z,0.00
2016-09-09T04:07:45.134Z,0.00
2016-09-09T04:08:45.650Z,0.00
2016-09-09T04:09:46.164Z,0.00
2016-09-09T04:10:46.829Z,0.00
2016-09-09T04:11:47.197Z,0.00
2016-09-09T04:12:47.710Z,0.00
2016-09-09T04:13:48.226Z,0.00
2016-09-09T04:14:48.766Z,0.00
2016-09-09T04:15:49.248Z,0.00
2016-09-09T04:16:49.766Z,0.00
2016-09-09T04:17:50.278Z,0.00
2016-09-09T04:18:50.797Z,0.00
2016-09-09T04:19:51.307Z,0.00
2016-09-09T04:20:51.824Z,0.00
2016-09-09T04:21:52.336Z,0.00
2016-09-09T04:22:52.847Z,0.00
2016-09-09T04:23:53.367Z,0.00
2016-09-09T04:24:53.900Z,0.00
2016-09-09T04:25:54.396Z,0.00
2016-09-09T04:26:54.910Z,0.00
2016-09-09T04:27:55.433Z,0.00
2016-09-09T04:28:55.951Z,0.00
2016-09-09T04:29:56.483Z,0.00
2016-09-09T04:30:56.983Z,0.00
2016-09-09T04:31:57.500Z,0.00
2016-09-09T04:32:58.014Z,0.00
2016-09-09T04:33:58.528Z,0.00
2016-09-09T04:34:59.064Z,0.00
2016-09-09T04:35:59.552Z,0.00
2016-09-09T04:37:00.073Z,0.00
2016-09-09T04:38:00.587Z,0.00
2016-09-09T04:39:01.105Z,0.00
2016-09-09T04:40:01.622Z,0.00
2016-09-09T04:41:02.133Z,0.00
2016-09-09T04:42:02.796Z,0.00
2016-09-09T04:43:03.162Z,0.00
2016-09-09T04:44:03.829Z,0.00
2016-09-09T04:45:04.369Z,0.00
2016-09-09T04:46:04.707Z,0.00
2016-09-09T04:47:05.218Z,0.00
2016-09-09T04:48:05.730Z,0.00
2016-09-09T04:49:06.245Z,9.00
2016-09-09T04:50:06.772Z,0.00
2016-09-09T04:51:07.280Z,2.00
2016-09-09T04:52:07.798Z,0.00
2016-09-09T04:53:08.318Z,0.00
2016-09-09T04:54:08.824Z,0.00
2016-09-09T04:55:09.336Z,0.00
2016-09-09T04:56:09.849Z,0.00
2016-09-09T04:57:10.365Z,0.00
2016-09-09T04:58:10.877Z,0.00
2016-09-09T04:59:11.389Z,0.00
2016-09-09T05:00:11.910Z,0.00
2016-09-09T05:01:12.421Z,0.00
2016-09-09T05:02:13.239Z,0.00
2016-09-09T05:03:13.453Z,0.00
2016-09-09T05:04:13.975Z,0.00
2016-09-09T05:05:14.501Z,0.00
2016-09-09T05:06:15.908Z,0.00
2016-09-09T05:07:15.537Z,0.00
2016-09-09T05:08:16.043Z,0.00
2016-09-09T05:09:16.567Z,0.00
2016-09-09T05:10:17.076Z,0.00
2016-09-09T05:11:17.587Z,0.00
2016-09-09T05:12:18.101Z,0.00
2016-09-09T05:13:18.615Z,0.00
2016-09-09T05:14:19.127Z,0.00
2016-09-09T05:15:19.667Z,0.00
2016-09-09T05:16:20.154Z,0.00
2016-09-09T05:17:20.669Z,0.00
2016-09-09T05:18:21.182Z,0.00
2016-09-09T05:19:21.694Z,0.00
2016-09-09T05:20:22.207Z,9.00
2016-09-09T05:21:22.718Z,0.00
2016-09-09T05:22:23.384Z,1.00
2016-09-09T05:23:23.750Z,1.00
2016-09-09T05:24:24.268Z,1.00
2016-09-09T05:25:24.803Z,1.00
2016-09-09T05:26:25.296Z,1.00
2016-09-09T05:27:25.960Z,1.00
2016-09-09T05:28:26.322Z,1.00
2016-09-09T05:29:26.835Z,1.00
2016-09-09T05:30:27.349Z,1.00
2016-09-09T05:31:27.866Z,1.00
2016-09-09T05:32:28.377Z,1.00
2016-09-09T05:33:28.896Z,1.00
2016-09-09T05:34:29.571Z,1.00
2016-09-09T05:35:29.941Z,1.00
2016-09-09T05:36:32.237Z,1.00
2016-09-09T05:37:30.954Z,1.00
2016-09-09T05:38:31.473Z,1.00
2016-09-09T05:39:31.980Z,1.00
2016-09-09T05:40:32.499Z,1.00
2016-09-09T05:41:33.162Z,1.00
2016-09-09T05:42:33.533Z,1.00
2016-09-09T05:43:34.054Z,1.00
2016-09-09T05:44:34.568Z,1.00
2016-09-09T05:45:35.082Z,1.00
2016-09-09T05:46:35.600Z,1.00
2016-09-09T05:47:36.108Z,2.00
2016-09-09T05:48:36.629Z,2.00
2016-09-09T05:49:37.143Z,2.00
2016-09-09T05:50:37.801Z,2.00
2016-09-09T05:51:38.333Z,2.00
2016-09-09T05:52:38.828Z,2.00
2016-09-09T05:53:40.724Z,2.00
2016-09-09T05:54:39.705Z,2.00
2016-09-09T05:55:40.223Z,2.00
2016-09-09T05:56:40.759Z,2.00
2016-09-09T05:57:41.248Z,2.00
2016-09-09T05:58:41.763Z,2.00
2016-09-09T05:59:42.276Z,2.00
2016-09-09T06:00:42.795Z,3.00
2016-09-09T06:01:43.305Z,3.00
2016-09-09T06:02:43.820Z,9.00
2016-09-09T06:03:44.333Z,3.00
2016-09-09T06:04:45.000Z,3.00
2016-09-09T06:05:45.425Z,3.00
2016-09-09T06:06:45.886Z,3.00
2016-09-09T06:07:46.394Z,4.00
2016-09-09T06:08:46.908Z,4.00
2016-09-09T06:09:47.421Z,4.00
2016-09-09T06:10:47.935Z,4.00
2016-09-09T06:11:48.449Z,4.00
2016-09-09T06:12:48.965Z,4.00
2016-09-09T06:13:49.474Z,9.00
2016-09-09T06:14:49.990Z,5.00
2016-09-09T06:15:50.504Z,5.00
2016-09-09T06:16:51.015Z,5.00
2016-09-09T06:17:51.536Z,5.00
2016-09-09T06:18:52.053Z,5.00
2016-09-09T06:19:52.719Z,5.00
2016-09-09T06:20:53.239Z,4.00
2016-09-09T06:21:53.604Z,4.00
2016-09-09T06:22:54.122Z,4.00
2016-09-09T06:23:54.645Z,5.00
2016-09-09T06:24:55.301Z,5.00
2016-09-09T06:25:55.679Z,5.00
2016-09-09T06:26:56.179Z,6.00
2016-09-09T06:27:56.699Z,9.00
2016-09-09T06:28:58.114Z,8.00
2016-09-09T06:29:57.724Z,9.00
2016-09-09T06:30:58.238Z,9.00
2016-09-09T06:31:58.754Z,9.00
2016-09-09T06:32:59.271Z,9.00
2016-09-09T06:33:59.790Z,19.00
2016-09-09T06:35:00.450Z,10.00
2016-09-09T06:36:00.849Z,12.00
2016-09-09T06:37:01.332Z,14.00
2016-09-09T06:38:01.846Z,15.00
2016-09-09T06:39:02.364Z,15.00
2016-09-09T06:40:03.025Z,16.00
2016-09-09T06:41:03.389Z,16.00
2016-09-09T06:42:03.904Z,15.00
2016-09-09T06:43:04.566Z,14.00
2016-09-09T06:44:04.945Z,12.00
2016-09-09T06:45:05.591Z,13.00
2016-09-09T06:46:05.959Z,14.00
2016-09-09T06:47:06.470Z,14.00
2016-09-09T06:48:06.988Z,14.00
2016-09-09T06:49:07.506Z,13.00
2016-09-09T06:50:08.018Z,13.00
2016-09-09T06:51:08.532Z,12.00
2016-09-09T06:52:09.045Z,10.00
2016-09-09T06:53:09.713Z,11.00
2016-09-09T06:54:10.079Z,11.00
2016-09-09T06:55:10.599Z,12.00
2016-09-09T06:56:11.147Z,19.00
2016-09-09T06:57:11.640Z,14.00
2016-09-09T06:58:12.150Z,14.00
2016-09-09T06:59:12.668Z,13.00
2016-09-09T07:00:13.328Z,13.00
2016-09-09T07:01:13.694Z,13.00
2016-09-09T07:02:14.212Z,14.00
2016-09-09T07:03:14.730Z,14.00
2016-09-09T07:04:15.399Z,14.00
2016-09-09T07:05:15.763Z,13.00
2016-09-09T07:06:16.280Z,12.00
2016-09-09T07:07:16.797Z,11.00
2016-09-09T07:08:17.309Z,11.00
2016-09-09T07:09:17.827Z,11.00
2016-09-09T07:10:18.337Z,10.00
2016-09-09T07:11:18.854Z,10.00
2016-09-09T07:12:19.365Z,10.00
2016-09-09T07:13:20.029Z,11.00
2016-09-09T07:14:20.390Z,13.00
2016-09-09T07:15:20.907Z,13.00
2016-09-09T07:16:21.420Z,14.00
2016-09-09T07:17:22.086Z,13.00
2016-09-09T07:18:22.445Z,13.00
2016-09-09T07:19:22.962Z,13.00
2016-09-09T07:20:23.482Z,14.00
2016-09-09T07:21:23.989Z,27.00
2016-09-09T07:22:24.502Z,18.00
2016-09-09T07:23:25.019Z,13.00
2016-09-09T07:24:25.528Z,13.00
2016-09-09T07:25:26.078Z,14.00
2016-09-09T07:26:26.560Z,14.00
2016-09-09T07:27:27.078Z,14.00
2016-09-09T07:28:27.594Z,14.00
2016-09-09T07:29:29.760Z,14.00
2016-09-09T07:30:28.622Z,15.00
2016-09-09T07:31:29.148Z,15.00
2016-09-09T07:32:29.661Z,16.00
2016-09-09T07:33:30.191Z,16.00
2016-09-09T07:34:30.694Z,15.00
2016-09-09T07:35:31.358Z,16.00
2016-09-09T07:36:31.724Z,16.00
2016-09-09T07:37:32.236Z,16.00
2016-09-09T07:38:32.754Z,16.00
2016-09-09T07:39:33.422Z,17.00
2016-09-09T07:40:33.948Z,17.00
2016-09-09T07:41:34.449Z,18.00
2016-09-09T07:42:34.815Z,18.00
2016-09-09T07:43:35.327Z,17.00
2016-09-09T07:44:35.870Z,17.00
2016-09-09T07:45:36.357Z,16.00
2016-09-09T07:46:36.869Z,15.00
2016-09-09T07:47:37.381Z,15.00
2016-09-09T07:48:37.894Z,15.00
2016-09-09T07:49:38.424Z,14.00
2016-09-09T07:50:38.926Z,13.00
2016-09-09T07:51:39.437Z,12.00
2016-09-09T07:52:39.961Z,11.00
2016-09-09T07:53:40.469Z,11.00
2016-09-09T07:54:40.981Z,11.00
2016-09-09T07:55:41.645Z,11.00
2016-09-09T07:56:42.174Z,11.00
2016-09-09T07:57:42.681Z,11.00
2016-09-09T07:58:43.041Z,12.00
2016-09-09T07:59:43.999Z,19.00
2016-09-09T08:00:44.061Z,14.00
2016-09-09T08:01:44.581Z,14.00
2016-09-09T08:02:45.241Z,14.00
2016-09-09T08:03:45.611Z,15.00
2016-09-09T08:04:46.116Z,15.00
2016-09-09T08:05:46.658Z,17.00
2016-09-09T08:06:47.145Z,29.00
2016-09-09T08:07:47.672Z,28.00
2016-09-09T08:08:48.183Z,29.00
2016-09-09T08:09:48.703Z,24.00
2016-09-09T08:10:49.364Z,24.00
2016-09-09T08:11:49.728Z,24.00
2016-09-09T08:12:50.391Z,24.00
2016-09-09T08:13:50.902Z,24.00
2016-09-09T08:14:51.268Z,23.00
2016-09-09T08:15:51.807Z,21.00
2016-09-09T08:16:52.301Z,20.00
2016-09-09T08:17:52.813Z,19.00
2016-09-09T08:18:53.351Z,18.00
2016-09-09T08:19:53.849Z,18.00
2016-09-09T08:20:54.342Z,18.00
2016-09-09T08:21:54.853Z,17.00
2016-09-09T08:22:55.375Z,17.00
2016-09-09T08:23:55.885Z,15.00
2016-09-09T08:24:56.394Z,14.00
2016-09-09T08:25:56.943Z,14.00
2016-09-09T08:26:57.421Z,19.00
2016-09-09T08:27:57.947Z,14.00
2016-09-09T08:28:58.455Z,14.00
2016-09-09T08:29:58.987Z,14.00
2016-09-09T08:30:59.482Z,15.00
2016-09-09T08:31:59.997Z,15.00
2016-09-09T08:33:00.518Z,16.00
2016-09-09T08:34:01.173Z,15.00
2016-09-09T08:35:01.570Z,19.00
2016-09-09T08:36:02.057Z,14.00
2016-09-09T08:37:02.571Z,15.00
2016-09-09T08:38:03.104Z,16.00
2016-09-09T08:39:03.602Z,19.00
2016-09-09T08:40:04.114Z,19.00
2016-09-09T08:41:04.625Z,17.00
2016-09-09T08:42:05.136Z,17.00
2016-09-09T08:43:05.657Z,17.00
2016-09-09T08:44:06.925Z,17.00
2016-09-09T08:45:06.710Z,19.00
2016-09-09T08:46:07.213Z,17.00
2016-09-09T08:47:07.736Z,16.00
2016-09-09T08:48:08.239Z,15.00
2016-09-09T08:49:08.749Z,15.00
2016-09-09T08:50:09.267Z,16.00
2016-09-09T08:51:09.781Z,16.00
2016-09-09T08:52:10.294Z,16.00
2016-09-09T08:53:10.815Z,16.00
2016-09-09T08:54:11.324Z,15.00
2016-09-09T08:55:11.985Z,15.00
2016-09-09T08:56:12.352Z,15.00
2016-09-09T08:57:12.865Z,15.00
2016-09-09T08:58:13.387Z,14.00
2016-09-09T08:59:14.047Z,14.00
2016-09-09T09:00:14.405Z,14.00
2016-09-09T09:01:15.072Z,14.00
2016-09-09T09:02:15.452Z,14.00
2016-09-09T09:03:15.950Z,17.00
2016-09-09T09:04:16.462Z,19.00
2016-09-09T09:05:17.001Z,29.00
2016-09-09T09:06:17.502Z,21.00
2016-09-09T09:07:18.010Z,29.00
2016-09-09T09:08:18.524Z,29.00
2016-09-09T09:09:19.038Z,19.00
2016-09-09T09:10:19.581Z,19.00
2016-09-09T09:11:20.069Z,19.00
2016-09-09T09:12:20.579Z,29.00
2016-09-09T09:13:21.101Z,29.00
2016-09-09T09:14:21.622Z,36.00
2016-09-09T09:15:22.129Z,39.00
2016-09-09T09:16:22.650Z,22.00
2016-09-09T09:17:23.160Z,21.00
2016-09-09T09:18:23.673Z,20.00
2016-09-09T09:19:24.188Z,19.00
2016-09-09T09:20:24.708Z,19.00
2016-09-09T09:21:25.224Z,19.00
2016-09-09T09:22:25.742Z,17.00
2016-09-09T09:23:26.406Z,18.00
2016-09-09T09:24:26.765Z,18.00
2016-09-09T09:25:27.277Z,18.00
2016-09-09T09:26:27.818Z,17.00
2016-09-09T09:27:28.308Z,18.00
2016-09-09T09:28:28.824Z,19.00
2016-09-09T09:29:29.335Z,29.00
2016-09-09T09:30:29.873Z,21.00
2016-09-09T09:31:30.539Z,22.00
2016-09-09T09:32:30.896Z,23.00
2016-09-09T09:33:31.540Z,27.00
2016-09-09T09:34:31.926Z,27.00
2016-09-09T09:35:32.423Z,28.00
2016-09-09T09:36:32.935Z,39.00
2016-09-09T09:37:33.454Z,37.00
2016-09-09T09:38:33.973Z,32.00
2016-09-09T09:39:34.475Z,36.00
2016-09-09T09:40:34.987Z,31.00
2016-09-09T09:41:35.534Z,29.00
2016-09-09T09:42:36.022Z,28.00
2016-09-09T09:43:36.547Z,28.00
2016-09-09T09:44:37.078Z,28.00
2016-09-09T09:45:37.559Z,27.00
2016-09-09T09:46:38.222Z,26.00
2016-09-09T09:47:38.608Z,25.00
2016-09-09T09:48:39.104Z,25.00
2016-09-09T09:49:39.612Z,25.00
2016-09-09T09:50:40.278Z,25.00
2016-09-09T09:51:40.639Z,29.00
2016-09-09T09:52:41.167Z,27.00
2016-09-09T09:53:41.664Z,25.00
2016-09-09T09:54:43.250Z,29.00
2016-09-09T09:55:42.852Z,24.00
2016-09-09T09:56:43.219Z,24.00
2016-09-09T09:57:43.738Z,25.00
2016-09-09T09:58:44.264Z,23.00
2016-09-09T09:59:44.773Z,23.00
2016-09-09T10:00:45.285Z,24.00
2016-09-09T10:01:45.796Z,24.00
2016-09-09T10:02:46.312Z,26.00
2016-09-09T10:03:46.971Z,25.00
2016-09-09T10:04:47.346Z,24.00
2016-09-09T10:05:47.856Z,25.00
2016-09-09T10:06:48.364Z,24.00
2016-09-09T10:07:48.885Z,26.00
2016-09-09T10:08:49.407Z,46.00
2016-09-09T10:09:49.913Z,48.00
2016-09-09T10:10:50.442Z,49.00
2016-09-09T10:11:50.944Z,47.00
2016-09-09T10:12:51.607Z,32.00
2016-09-09T10:13:51.973Z,33.00
2016-09-09T10:14:52.634Z,30.00
2016-09-09T10:15:53.000Z,29.00
2016-09-09T10:16:53.515Z,39.00
2016-09-09T10:17:54.178Z,30.00
2016-09-09T10:18:54.545Z,29.00
2016-09-09T10:19:55.057Z,39.00
2016-09-09T10:20:55.578Z,28.00
2016-09-09T10:21:56.079Z,26.00
2016-09-09T10:22:56.593Z,25.00
2016-09-09T10:23:57.109Z,24.00
2016-09-09T10:24:57.622Z,24.00
2016-09-09T10:25:58.283Z,23.00
2016-09-09T10:26:58.792Z,23.00
2016-09-09T10:27:59.158Z,23.00
2016-09-09T10:28:59.670Z,22.00
2016-09-09T10:30:00.185Z,21.00
2016-09-09T10:31:00.734Z,20.00
2016-09-09T10:32:01.211Z,20.00
2016-09-09T10:33:01.726Z,21.00
2016-09-09T10:34:02.271Z,22.00
2016-09-09T10:35:02.921Z,24.00
2016-09-09T10:36:03.282Z,25.00
2016-09-09T10:37:03.799Z,25.00
2016-09-09T10:38:04.309Z,24.00
2016-09-09T10:39:04.971Z,23.00
2016-09-09T10:40:05.334Z,23.00
2016-09-09T10:41:05.851Z,23.00
2016-09-09T10:42:06.365Z,23.00
2016-09-09T10:43:06.879Z,23.00
2016-09-09T10:44:07.420Z,23.00
2016-09-09T10:45:09.707Z,24.00
2016-09-09T10:46:08.432Z,24.00
2016-09-09T10:47:08.936Z,25.00
2016-09-09T10:48:09.448Z,25.00
2016-09-09T10:49:09.965Z,25.00
2016-09-09T10:50:10.486Z,39.00
2016-09-09T10:51:11.141Z,39.00
2016-09-09T10:52:11.505Z,29.00
2016-09-09T10:53:12.017Z,27.00
2016-09-09T10:54:12.561Z,27.00
2016-09-09T10:55:13.046Z,28.00
2016-09-09T10:56:13.559Z,27.00
2016-09-09T10:57:14.255Z,25.00
2016-09-09T10:58:14.585Z,24.00
2016-09-09T10:59:15.099Z,24.00
2016-09-09T11:00:15.610Z,23.00
2016-09-09T11:01:16.127Z,22.00
2016-09-09T11:02:16.635Z,25.00
2016-09-09T11:03:17.150Z,27.00
2016-09-09T11:04:17.691Z,27.00
2016-09-09T11:05:18.180Z,28.00
2016-09-09T11:06:18.688Z,39.00
2016-09-09T11:07:19.205Z,49.00
2016-09-09T11:08:19.717Z,48.00
2016-09-09T11:09:20.235Z,34.00
2016-09-09T11:10:20.754Z,59.00
2016-09-09T11:11:21.421Z,51.00
2016-09-09T11:12:21.786Z,51.00
2016-09-09T11:13:22.593Z,29.00
2016-09-09T11:14:22.811Z,48.00
2016-09-09T11:15:24.823Z,48.00
2016-09-09T11:16:23.841Z,47.00
2016-09-09T11:17:24.360Z,37.00
2016-09-09T11:18:24.875Z,39.00
2016-09-09T11:19:25.397Z,39.00
2016-09-09T11:20:25.896Z,31.00
2016-09-09T11:21:26.409Z,25.00
2016-09-09T11:22:26.926Z,28.00
2016-09-09T11:23:27.472Z,29.00
2016-09-09T11:24:27.954Z,39.00
2016-09-09T11:25:28.467Z,28.00
2016-09-09T11:26:28.979Z,39.00
2016-09-09T11:27:29.493Z,38.00
2016-09-09T11:28:30.014Z,46.00
2016-09-09T11:29:30.673Z,46.00
2016-09-09T11:30:31.193Z,47.00
2016-09-09T11:31:31.557Z,47.00
2016-09-09T11:32:32.078Z,48.00
2016-09-09T11:33:32.601Z,48.00
2016-09-09T11:34:33.092Z,49.00
2016-09-09T11:35:33.605Z,48.00
2016-09-09T11:36:34.283Z,48.00
2016-09-09T11:37:34.668Z,48.00
2016-09-09T11:38:35.160Z,48.00
2016-09-09T11:39:35.667Z,46.00
2016-09-09T11:40:36.178Z,46.00
2016-09-09T11:41:36.845Z,48.00
2016-09-09T11:42:37.205Z,47.00
2016-09-09T11:43:37.739Z,47.00
2016-09-09T11:44:38.235Z,46.00
2016-09-09T11:45:38.756Z,46.00
2016-09-09T11:46:39.274Z,46.00
2016-09-09T11:47:39.794Z,46.00
2016-09-09T11:48:40.304Z,45.00
2016-09-09T11:49:40.838Z,45.00
2016-09-09T11:50:41.333Z,45.00
2016-09-09T11:51:41.858Z,49.00
2016-09-09T11:52:42.507Z,45.00
2016-09-09T11:53:43.023Z,45.00
2016-09-09T11:54:43.393Z,45.00
2016-09-09T11:55:43.905Z,49.00
2016-09-09T11:56:44.416Z,45.00
2016-09-09T11:57:44.927Z,45.00
2016-09-09T11:58:45.448Z,43.00
2016-09-09T11:59:45.965Z,43.00
2016-09-09T12:00:46.475Z,43.00
2016-09-09T12:01:46.993Z,49.00
2016-09-09T12:02:47.520Z,49.00
2016-09-09T12:03:48.023Z,49.00
2016-09-09T12:04:48.534Z,42.00
2016-09-09T12:05:49.051Z,42.00
2016-09-09T12:06:49.575Z,43.00
2016-09-09T12:07:50.081Z,49.00
2016-09-09T12:08:50.627Z,41.00
2016-09-09T12:09:51.112Z,49.00
2016-09-09T12:10:51.623Z,49.00
2016-09-09T12:11:52.137Z,49.00
2016-09-09T12:12:52.651Z,42.00
2016-09-09T12:13:53.184Z,49.00
2016-09-09T12:14:53.682Z,39.00
2016-09-09T12:15:54.219Z,26.00
2016-09-09T12:16:54.730Z,39.00
2016-09-09T12:17:55.225Z,39.00
2016-09-09T12:18:55.739Z,29.00
2016-09-09T12:19:56.250Z,24.00
2016-09-09T12:20:56.924Z,24.00
2016-09-09T12:21:57.290Z,23.00
2016-09-09T12:22:57.826Z,29.00
2016-09-09T12:23:58.329Z,23.00
2016-09-09T12:24:58.994Z,22.00
2016-09-09T12:25:59.354Z,22.00
2016-09-09T12:26:59.866Z,22.00
2016-09-09T12:28:00.530Z,23.00
2016-09-09T12:29:00.892Z,23.00
2016-09-09T12:30:01.408Z,23.00
2016-09-09T12:31:02.068Z,22.00
2016-09-09T12:32:02.462Z,22.00
2016-09-09T12:33:02.950Z,21.00
2016-09-09T12:34:03.610Z,21.00
2016-09-09T12:35:03.974Z,21.00
2016-09-09T12:36:04.485Z,21.00
2016-09-09T12:37:05.003Z,21.00
2016-09-09T12:38:05.517Z,21.00
2016-09-09T12:39:06.031Z,29.00
2016-09-09T12:40:06.545Z,39.00
2016-09-09T12:41:07.060Z,29.00
2016-09-09T12:42:07.753Z,39.00
2016-09-09T12:43:08.092Z,49.00
2016-09-09T12:44:08.622Z,42.00
2016-09-09T12:45:09.120Z,42.00
2016-09-09T12:46:09.642Z,42.00
2016-09-09T12:47:10.149Z,42.00
2016-09-09T12:48:10.810Z,42.00
2016-09-09T12:49:11.172Z,49.00
2016-09-09T12:50:11.683Z,42.00
2016-09-09T12:51:12.203Z,41.00
2016-09-09T12:52:12.718Z,40.00
2016-09-09T12:53:13.230Z,39.00
2016-09-09T12:54:13.747Z,36.00
2016-09-09T12:55:14.254Z,37.00
2016-09-09T12:56:14.797Z,38.00
2016-09-09T12:57:15.284Z,38.00
2016-09-09T12:58:15.956Z,38.00
2016-09-09T12:59:16.322Z,38.00
2016-09-09T13:00:16.839Z,38.00
2016-09-09T13:01:17.360Z,38.00
2016-09-09T13:02:17.893Z,38.00
2016-09-09T13:03:18.380Z,39.00
2016-09-09T13:04:18.894Z,36.00
2016-09-09T13:05:19.403Z,37.00
2016-09-09T13:06:19.913Z,37.00
2016-09-09T13:07:20.447Z,38.00
2016-09-09T13:08:20.941Z,37.00
2016-09-09T13:09:21.462Z,38.00
2016-09-09T13:10:21.967Z,38.00
2016-09-09T13:11:22.508Z,38.00
2016-09-09T13:12:22.997Z,37.00